createdAt,value
2022-09-12T00:00:05.817Z,18.40
2022-09-12T00:00:17.781Z,18.40
2022-09-12T00:00:31.884Z,18.40
2022-09-12T00:00:43.727Z,18.40
2022-09-12T00:01:27.939Z,18.40
2022-09-12T00:01:39.743Z,18.40
2022-09-12T00:01:51.480Z,18.40
2022-09-12T00:02:03.956Z,18.40
2022-09-12T00:02:15.749Z,18.30
2022-09-12T00:02:27.556Z,18.30
2022-09-12T00:02:39.286Z,18.40
2022-09-12T00:02:54.283Z,18.40
2022-09-12T00:03:06.045Z,18.40
2022-09-12T00:03:17.773Z,18.30
2022-09-12T00:03:29.590Z,18.40
2022-09-12T00:03:41.485Z,18.40
2022-09-12T00:03:58.270Z,18.30
2022-09-12T00:04:10.217Z,18.30
2022-09-12T00:04:21.997Z,18.30
2022-09-12T00:04:33.712Z,18.30
2022-09-12T00:04:45.462Z,18.30
2022-09-12T00:04:57.243Z,18.30
2022-09-12T00:05:09.325Z,18.30
2022-09-12T00:05:22.072Z,18.30
2022-09-12T00:05:34.050Z,18.30
2022-09-12T00:05:47.790Z,18.30
2022-09-12T00:05:59.554Z,18.30
2022-09-12T00:06:18.117Z,18.30
2022-09-12T00:06:34.357Z,18.30
2022-09-12T00:06:46.202Z,18.30
2022-09-12T00:06:58.021Z,18.30
2022-09-12T00:07:09.749Z,18.30
2022-09-12T00:07:21.616Z,18.20
2022-09-12T00:07:34.389Z,18.20
2022-09-12T00:07:47.062Z,18.20
2022-09-12T00:07:59.260Z,18.30
2022-09-12T00:08:11.130Z,18.20
2022-09-12T00:08:22.992Z,18.20
2022-09-12T00:08:35.285Z,18.20
2022-09-12T00:08:47.088Z,18.20
2022-09-12T00:09:00.832Z,18.20
2022-09-12T00:09:13.879Z,18.20
2022-09-12T00:09:26.371Z,18.20
2022-09-12T00:09:38.295Z,18.20
2022-09-12T00:09:50.037Z,18.20
2022-09-12T00:10:02.082Z,18.20
2022-09-12T00:10:14.079Z,18.20
2022-09-12T00:10:26.013Z,18.20
2022-09-12T00:10:40.015Z,18.20
2022-09-12T00:10:51.918Z,18.20
2022-09-12T00:11:07.811Z,18.20
2022-09-12T00:11:19.919Z,18.20
2022-09-12T00:11:32.658Z,18.20
2022-09-12T00:11:45.306Z,18.20
2022-09-12T00:11:57.045Z,18.20
2022-09-12T00:12:08.826Z,18.20
2022-09-12T00:12:20.718Z,18.20
2022-09-12T00:12:33.311Z,18.30
2022-09-12T00:12:45.251Z,18.30
2022-09-12T00:12:57.889Z,18.20
2022-09-12T00:13:10.381Z,18.20
2022-09-12T00:13:22.133Z,18.20
2022-09-12T00:13:37.271Z,18.20
2022-09-12T00:13:52.369Z,18.20
2022-09-12T00:14:06.313Z,18.20
2022-09-12T00:14:18.980Z,18.20
2022-09-12T00:14:30.810Z,18.20
2022-09-12T00:14:42.885Z,18.20
2022-09-12T00:14:54.922Z,18.30
2022-09-12T00:15:07.514Z,18.20
2022-09-12T00:15:19.368Z,18.20
2022-09-12T00:15:31.177Z,18.20
2022-09-12T00:15:44.545Z,18.20
2022-09-12T00:15:56.362Z,18.30
2022-09-12T00:16:08.415Z,18.30
2022-09-12T00:16:24.845Z,18.20
2022-09-12T00:16:37.169Z,18.30
2022-09-12T00:16:49.199Z,18.20
2022-09-12T00:17:01.383Z,18.30
2022-09-12T00:17:13.396Z,18.20
2022-09-12T00:17:25.262Z,18.20
2022-09-12T00:17:37.919Z,18.20
2022-09-12T00:17:49.975Z,18.20
2022-09-12T00:18:02.574Z,18.20
2022-09-12T00:18:16.723Z,18.20
2022-09-12T00:18:28.826Z,18.20
2022-09-12T00:18:40.636Z,18.20
2022-09-12T00:18:54.166Z,18.20
2022-09-12T00:19:07.127Z,18.20
2022-09-12T00:19:19.220Z,18.20
2022-09-12T00:19:30.941Z,18.20
2022-09-12T00:19:42.705Z,18.20
2022-09-12T00:19:55.282Z,18.20
2022-09-12T00:20:08.712Z,18.20
2022-09-12T00:20:20.844Z,18.20
2022-09-12T00:20:32.850Z,18.20
2022-09-12T00:20:46.242Z,18.20
2022-09-12T00:20:58.185Z,18.10
2022-09-12T00:21:13.569Z,18.20
2022-09-12T00:21:25.535Z,18.20
2022-09-12T00:21:38.234Z,18.20
2022-09-12T00:21:50.754Z,18.20
2022-09-12T00:22:02.757Z,18.10
2022-09-12T00:22:14.726Z,18.20
2022-09-12T00:22:26.837Z,18.20
2022-09-12T00:22:40.599Z,18.10
2022-09-12T00:22:52.664Z,18.10
2022-09-12T00:23:05.397Z,18.20
2022-09-12T00:23:17.284Z,18.20
2022-09-12T00:23:29.217Z,18.20
2022-09-12T00:23:41.457Z,18.10
2022-09-12T00:23:53.383Z,18.20
2022-09-12T00:24:07.594Z,18.10
2022-09-12T00:24:19.351Z,18.20
2022-09-12T00:24:31.206Z,18.10
2022-09-12T00:24:44.911Z,18.10
2022-09-12T00:24:56.765Z,18.10
2022-09-12T00:25:08.945Z,18.10
2022-09-12T00:25:20.770Z,18.10
2022-09-12T00:25:32.808Z,18.10
2022-09-12T00:25:45.772Z,18.10
2022-09-12T00:25:57.615Z,18.10
2022-09-12T00:26:11.400Z,18.10
2022-09-12T00:26:23.258Z,18.10
2022-09-12T00:26:35.075Z,18.10
2022-09-12T00:26:46.894Z,18.10
2022-09-12T00:26:58.771Z,18.10
2022-09-12T00:27:10.971Z,18.10
2022-09-12T00:27:23.605Z,18.10
2022-09-12T00:27:35.718Z,18.10
2022-09-12T00:27:47.679Z,18.10
2022-09-12T00:27:59.466Z,18.10
2022-09-12T00:28:12.090Z,18.10
2022-09-12T00:28:23.860Z,18.10
2022-09-12T00:28:36.161Z,18.10
2022-09-12T00:28:48.194Z,18.10
2022-09-12T00:29:00.094Z,18.10
2022-09-12T00:29:21.582Z,18.10
2022-09-12T00:29:33.502Z,18.10
2022-09-12T00:29:45.265Z,18.10
2022-09-12T00:29:56.942Z,18.10
2022-09-12T00:30:09.019Z,18.10
2022-09-12T00:30:21.001Z,18.10
2022-09-12T00:30:33.726Z,18.10
2022-09-12T00:30:47.020Z,18.10
2022-09-12T00:30:58.884Z,18.10
2022-09-12T00:31:12.563Z,18.10
2022-09-12T00:31:25.276Z,18.10
2022-09-12T00:31:37.083Z,18.10
2022-09-12T00:31:48.987Z,18.10
2022-09-12T00:32:00.890Z,18.10
2022-09-12T00:32:12.740Z,18.10
2022-09-12T00:32:24.458Z,18.10
2022-09-12T00:32:36.229Z,18.10
2022-09-12T00:32:48.334Z,18.10
2022-09-12T00:33:00.064Z,18.10
2022-09-12T00:33:11.942Z,18.10
2022-09-12T00:33:24.285Z,18.10
2022-09-12T00:33:36.186Z,18.10
2022-09-12T00:33:48.271Z,18.10
2022-09-12T00:34:01.831Z,18.10
2022-09-12T00:34:14.041Z,18.10
2022-09-12T00:34:25.939Z,18.10
2022-09-12T00:34:37.756Z,18.10
2022-09-12T00:34:49.505Z,18.10
2022-09-12T00:35:02.859Z,18.10
2022-09-12T00:35:14.680Z,18.10
2022-09-12T00:35:26.427Z,18.10
2022-09-12T00:35:45.618Z,18.10
2022-09-12T00:35:57.300Z,18.10
2022-09-12T00:36:17.177Z,18.10
2022-09-12T00:36:29.349Z,18.10
2022-09-12T00:36:41.365Z,18.10
2022-09-12T00:36:53.117Z,18.10
2022-09-12T00:37:04.948Z,18.10
2022-09-12T00:37:16.734Z,18.10
2022-09-12T00:37:28.406Z,18.10
2022-09-12T00:37:40.125Z,18.10
2022-09-12T00:37:51.809Z,18.10
2022-09-12T00:38:03.969Z,18.10
2022-09-12T00:38:16.009Z,18.20
2022-09-12T00:38:27.661Z,18.10
2022-09-12T00:38:41.954Z,18.10
2022-09-12T00:38:54.670Z,18.10
2022-09-12T00:39:06.834Z,18.20
2022-09-12T00:39:19.221Z,18.10
2022-09-12T00:39:30.930Z,18.20
2022-09-12T00:39:42.756Z,18.10
2022-09-12T00:39:54.520Z,18.10
2022-09-12T00:40:06.995Z,18.20
2022-09-12T00:40:18.809Z,18.20
2022-09-12T00:40:30.506Z,18.10
2022-09-12T00:40:42.356Z,18.20
2022-09-12T00:40:54.103Z,18.10
2022-09-12T00:41:06.319Z,18.20
2022-09-12T00:41:23.224Z,18.10
2022-09-12T00:41:38.866Z,18.10
2022-09-12T00:41:50.585Z,18.20
2022-09-12T00:42:02.563Z,18.10
2022-09-12T00:42:14.321Z,18.10
2022-09-12T00:42:26.181Z,18.20
2022-09-12T00:42:38.002Z,18.20
2022-09-12T00:42:49.927Z,18.20
2022-09-12T00:43:01.694Z,18.10
2022-09-12T00:43:38.190Z,18.20
2022-09-12T00:43:51.804Z,18.20
2022-09-12T00:44:10.814Z,18.10
2022-09-12T00:44:22.496Z,18.10
2022-09-12T00:44:37.181Z,18.10
2022-09-12T00:44:50.822Z,18.10
2022-09-12T00:45:02.576Z,18.10
2022-09-12T00:45:22.453Z,18.10
2022-09-12T00:45:34.342Z,18.10
2022-09-12T00:45:46.065Z,18.10
2022-09-12T00:45:58.429Z,18.10
2022-09-12T00:46:15.110Z,18.10
2022-09-12T00:46:40.389Z,18.10
2022-09-12T00:46:59.870Z,18.10
2022-09-12T00:47:29.658Z,18.10
2022-09-12T00:47:41.334Z,18.10
2022-09-12T00:47:53.119Z,18.10
2022-09-12T00:48:11.252Z,18.10
2022-09-12T00:48:25.743Z,18.10
2022-09-12T00:48:42.214Z,18.10
2022-09-12T00:48:57.413Z,18.10
2022-09-12T00:49:28.262Z,18.00
2022-09-12T00:49:45.736Z,18.10
2022-09-12T00:50:07.533Z,18.10
2022-09-12T00:50:19.307Z,18.10
2022-09-12T00:50:32.060Z,18.00
2022-09-12T00:50:43.834Z,18.00
2022-09-12T00:50:55.544Z,18.00
2022-09-12T00:51:07.243Z,18.00
2022-09-12T00:51:19.099Z,18.00
2022-09-12T00:51:32.105Z,18.00
2022-09-12T00:51:46.840Z,18.00
2022-09-12T00:52:00.491Z,18.00
2022-09-12T00:52:16.582Z,18.00
2022-09-12T00:52:37.131Z,18.00
2022-09-12T00:52:53.588Z,18.00
2022-09-12T00:53:06.385Z,18.00
2022-09-12T00:53:18.069Z,18.00
2022-09-12T00:53:29.748Z,18.00
2022-09-12T00:53:41.502Z,18.00
2022-09-12T00:53:53.345Z,18.00
2022-09-12T00:54:08.932Z,18.00
2022-09-12T00:54:22.993Z,18.00
2022-09-12T00:54:38.758Z,18.00
2022-09-12T00:55:17.253Z,18.00
2022-09-12T00:55:41.510Z,18.00
2022-09-12T00:55:53.266Z,17.90
2022-09-12T00:56:05.141Z,17.90
2022-09-12T00:56:17.573Z,17.90
2022-09-12T00:56:29.336Z,17.90
2022-09-12T00:56:41.662Z,17.90
2022-09-12T00:56:54.460Z,17.90
2022-09-12T00:57:06.787Z,17.90
2022-09-12T00:57:18.841Z,17.90
2022-09-12T00:57:33.640Z,17.90
2022-09-12T00:57:56.719Z,17.90
2022-09-12T00:58:14.805Z,17.90
2022-09-12T00:58:29.449Z,17.90
2022-09-12T00:58:44.283Z,17.90
2022-09-12T00:59:00.745Z,17.80
2022-09-12T00:59:19.317Z,17.80
2022-09-12T00:59:42.796Z,17.80
2022-09-12T00:59:57.815Z,17.80
2022-09-12T01:00:15.423Z,17.80
2022-09-12T01:00:27.624Z,17.80
2022-09-12T01:00:39.407Z,17.80
2022-09-12T01:00:51.525Z,17.80
2022-09-12T01:01:03.565Z,17.80
2022-09-12T01:01:15.452Z,17.80
2022-09-12T01:01:31.743Z,17.80
2022-09-12T01:01:44.864Z,17.80
2022-09-12T01:01:56.744Z,17.80
2022-09-12T01:02:08.748Z,17.80
2022-09-12T01:02:21.407Z,17.80
2022-09-12T01:02:33.140Z,17.80
2022-09-12T01:02:46.840Z,17.80
2022-09-12T01:03:06.162Z,17.80
2022-09-12T01:03:19.526Z,17.80
2022-09-12T01:03:31.263Z,17.80
2022-09-12T01:03:42.979Z,17.80
2022-09-12T01:03:54.864Z,17.80
2022-09-12T01:04:08.229Z,17.80
2022-09-12T01:04:21.506Z,17.80
2022-09-12T01:04:33.783Z,17.80
2022-09-12T01:04:45.585Z,17.80
2022-09-12T01:04:57.441Z,17.80
2022-09-12T01:05:09.226Z,17.80
2022-09-12T01:05:21.429Z,17.80
2022-09-12T01:05:34.692Z,17.80
2022-09-12T01:05:56.936Z,17.80
2022-09-12T01:06:23.846Z,17.80
2022-09-12T01:06:40.569Z,17.80
2022-09-12T01:06:52.258Z,17.80
2022-09-12T01:07:04.117Z,17.80
2022-09-12T01:07:15.968Z,17.80
2022-09-12T01:07:28.110Z,17.80
2022-09-12T01:07:40.465Z,17.70
2022-09-12T01:07:52.319Z,17.70
2022-09-12T01:08:04.435Z,17.70
2022-09-12T01:08:16.128Z,17.70
2022-09-12T01:08:28.483Z,17.70
2022-09-12T01:08:41.166Z,17.70
2022-09-12T01:08:52.886Z,17.70
2022-09-12T01:09:05.126Z,17.70
2022-09-12T01:09:18.472Z,17.70
2022-09-12T01:09:30.237Z,17.70
2022-09-12T01:09:42.470Z,17.70
2022-09-12T01:09:54.236Z,17.70
2022-09-12T01:10:07.243Z,17.70
2022-09-12T01:10:19.029Z,17.70
2022-09-12T01:10:31.256Z,17.70
2022-09-12T01:10:43.064Z,17.70
2022-09-12T01:10:55.024Z,17.70
2022-09-12T01:11:09.270Z,17.70
2022-09-12T01:11:21.315Z,17.70
2022-09-12T01:11:34.767Z,17.70
2022-09-12T01:11:47.069Z,17.60
2022-09-12T01:11:59.014Z,17.70
2022-09-12T01:12:11.225Z,17.70
2022-09-12T01:12:22.981Z,17.70
2022-09-12T01:12:34.756Z,17.70
2022-09-12T01:12:46.540Z,17.70
2022-09-12T01:12:58.314Z,17.70
2022-09-12T01:13:10.198Z,17.70
2022-09-12T01:13:21.906Z,17.70
2022-09-12T01:13:43.557Z,17.70
2022-09-12T01:13:55.221Z,17.60
2022-09-12T01:14:07.478Z,17.60
2022-09-12T01:14:19.458Z,17.70
2022-09-12T01:14:31.179Z,17.60
2022-09-12T01:14:42.871Z,17.60
2022-09-12T01:14:54.588Z,17.60
2022-09-12T01:15:07.039Z,17.60
2022-09-12T01:15:18.857Z,17.60
2022-09-12T01:15:30.620Z,17.60
2022-09-12T01:15:42.451Z,17.60
2022-09-12T01:15:54.299Z,17.60
2022-09-12T01:16:07.086Z,17.60
2022-09-12T01:16:18.928Z,17.60
2022-09-12T01:16:30.820Z,17.60
2022-09-12T01:16:42.789Z,17.60
2022-09-12T01:16:54.527Z,17.60
2022-09-12T01:17:06.520Z,17.60
2022-09-12T01:17:18.317Z,17.60
2022-09-12T01:17:34.713Z,17.60
2022-09-12T01:18:02.097Z,17.60
2022-09-12T01:18:31.836Z,17.60
2022-09-12T01:18:48.914Z,17.60
2022-09-12T01:19:35.186Z,17.50
2022-09-12T01:19:52.820Z,17.50
2022-09-12T01:20:28.335Z,17.50
2022-09-12T01:20:47.003Z,17.50
2022-09-12T01:21:18.464Z,17.40
2022-09-12T01:21:34.684Z,17.40
2022-09-12T01:21:57.396Z,17.50
2022-09-12T01:22:27.650Z,17.50
2022-09-12T01:23:25.105Z,17.50
2022-09-12T01:24:07.167Z,17.40
2022-09-12T01:24:38.179Z,17.50
2022-09-12T01:25:14.672Z,17.50
2022-09-12T01:25:38.144Z,17.50
2022-09-12T01:26:28.170Z,17.50
2022-09-12T01:26:52.074Z,17.40
2022-09-12T01:27:11.600Z,17.40
2022-09-12T01:27:49.355Z,17.50
2022-09-12T01:28:28.663Z,17.50
2022-09-12T01:28:47.183Z,17.50
2022-09-12T01:29:16.838Z,17.50
2022-09-12T01:29:53.900Z,17.50
2022-09-12T01:30:19.188Z,17.50
2022-09-12T01:31:00.934Z,17.50
2022-09-12T01:31:35.113Z,17.40
2022-09-12T01:31:52.302Z,17.50
2022-09-12T01:32:34.933Z,17.50
2022-09-12T01:32:55.332Z,17.50
2022-09-12T01:33:29.633Z,17.40
2022-09-12T01:33:50.334Z,17.40
2022-09-12T01:34:28.231Z,17.40
2022-09-12T01:34:43.673Z,17.40
2022-09-12T01:35:00.697Z,17.40
2022-09-12T01:35:25.409Z,17.40
2022-09-12T01:36:05.631Z,17.40
2022-09-12T01:36:45.946Z,17.40
2022-09-12T01:37:03.697Z,17.30
2022-09-12T01:37:20.272Z,17.30
2022-09-12T01:37:51.537Z,17.30
2022-09-12T01:38:25.932Z,17.30
2022-09-12T01:38:48.722Z,17.30
2022-09-12T01:39:02.498Z,17.30
2022-09-12T01:39:20.809Z,17.30
2022-09-12T01:39:52.309Z,17.30
2022-09-12T01:40:26.396Z,17.30
2022-09-12T01:40:49.101Z,17.30
2022-09-12T01:41:14.547Z,17.30
2022-09-12T01:41:43.518Z,17.30
2022-09-12T01:42:35.723Z,17.30
2022-09-12T01:42:56.782Z,17.20
2022-09-12T01:43:21.966Z,17.20
2022-09-12T01:43:41.977Z,17.20
2022-09-12T01:43:59.590Z,17.10
2022-09-12T01:44:29.572Z,17.10
2022-09-12T01:44:57.003Z,17.10
2022-09-12T01:45:16.715Z,17.10
2022-09-12T01:45:33.004Z,17.10
2022-09-12T01:45:47.315Z,17.10
2022-09-12T01:46:19.082Z,17.00
2022-09-12T01:46:33.901Z,17.10
2022-09-12T01:46:54.323Z,17.10
2022-09-12T01:47:15.732Z,17.10
2022-09-12T01:47:40.838Z,17.10
2022-09-12T01:48:13.093Z,17.10
2022-09-12T01:48:27.760Z,17.10
2022-09-12T01:48:44.187Z,17.10
2022-09-12T01:48:57.775Z,17.10
2022-09-12T01:49:17.379Z,17.00
2022-09-12T01:49:32.943Z,17.00
2022-09-12T01:49:56.054Z,17.00
2022-09-12T01:51:02.868Z,17.00
2022-09-12T01:51:22.352Z,17.10
2022-09-12T01:51:39.923Z,17.00
2022-09-12T01:51:58.916Z,17.00
2022-09-12T01:52:32.415Z,17.00
2022-09-12T01:53:05.025Z,17.00
2022-09-12T01:53:20.661Z,17.00
2022-09-12T01:53:38.234Z,17.00
2022-09-12T01:53:55.784Z,17.00
2022-09-12T01:54:13.479Z,17.00
2022-09-12T01:54:32.313Z,17.00
2022-09-12T01:55:09.811Z,17.00
2022-09-12T01:55:34.119Z,17.00
2022-09-12T01:55:55.509Z,17.00
2022-09-12T01:56:10.433Z,17.00
2022-09-12T01:56:26.905Z,17.00
2022-09-12T01:56:39.325Z,17.00
2022-09-12T01:56:52.741Z,17.00
2022-09-12T01:57:07.503Z,17.00
2022-09-12T01:57:41.348Z,17.00
2022-09-12T01:58:07.430Z,17.00
2022-09-12T01:58:21.569Z,17.00
2022-09-12T01:58:39.413Z,17.00
2022-09-12T01:58:54.392Z,17.00
2022-09-12T01:59:11.252Z,17.00
2022-09-12T01:59:28.643Z,17.00
2022-09-12T01:59:44.299Z,17.00
2022-09-12T01:59:59.173Z,17.00
2022-09-12T02:00:11.549Z,17.00
2022-09-12T02:00:23.247Z,17.00
2022-09-12T02:00:37.805Z,17.00
2022-09-12T02:01:04.535Z,17.00
2022-09-12T02:01:36.573Z,17.00
2022-09-12T02:01:52.902Z,17.00
2022-09-12T02:02:33.965Z,17.00
2022-09-12T02:02:49.985Z,17.00
2022-09-12T02:03:10.211Z,17.00
2022-09-12T02:03:27.767Z,17.00
2022-09-12T02:03:51.945Z,16.90
2022-09-12T02:04:10.002Z,17.00
2022-09-12T02:04:34.481Z,17.00
2022-09-12T02:04:52.178Z,17.00
2022-09-12T02:05:11.334Z,17.00
2022-09-12T02:05:56.048Z,16.90
2022-09-12T02:06:10.412Z,16.90
2022-09-12T02:06:38.268Z,16.90
2022-09-12T02:06:54.239Z,16.90
2022-09-12T02:07:13.192Z,16.90
2022-09-12T02:07:28.962Z,16.90
2022-09-12T02:07:45.494Z,16.90
2022-09-12T02:08:02.997Z,16.90
2022-09-12T02:08:17.761Z,16.90
2022-09-12T02:08:32.830Z,16.90
2022-09-12T02:08:47.296Z,16.90
2022-09-12T02:09:14.908Z,16.90
2022-09-12T02:09:29.933Z,16.90
2022-09-12T02:09:47.480Z,16.90
2022-09-12T02:10:13.778Z,16.90
2022-09-12T02:10:31.762Z,16.90
2022-09-12T02:10:47.953Z,16.90
2022-09-12T02:11:01.993Z,16.90
2022-09-12T02:11:13.802Z,16.90
2022-09-12T02:11:25.560Z,16.80
2022-09-12T02:11:38.916Z,16.90
2022-09-12T02:11:51.194Z,16.80
2022-09-12T02:12:03.800Z,16.90
2022-09-12T02:12:17.696Z,16.90
2022-09-12T02:12:31.751Z,16.80
2022-09-12T02:13:08.472Z,16.80
2022-09-12T02:13:23.448Z,16.80
2022-09-12T02:13:47.821Z,16.80
2022-09-12T02:14:02.950Z,16.80
2022-09-12T02:14:23.241Z,16.80
2022-09-12T02:14:38.001Z,16.80
2022-09-12T02:14:55.208Z,16.80
2022-09-12T02:15:08.659Z,16.80
2022-09-12T02:15:21.846Z,16.80
2022-09-12T02:15:36.695Z,16.80
2022-09-12T02:15:51.161Z,16.80
2022-09-12T02:16:17.983Z,16.80
2022-09-12T02:16:42.464Z,16.80
2022-09-12T02:17:19.629Z,16.80
2022-09-12T02:17:31.313Z,16.80
2022-09-12T02:17:43.686Z,16.70
2022-09-12T02:17:57.534Z,16.70
2022-09-12T02:18:10.052Z,16.70
2022-09-12T02:18:21.900Z,16.70
2022-09-12T02:18:33.613Z,16.70
2022-09-12T02:18:47.731Z,16.70
2022-09-12T02:19:07.955Z,16.70
2022-09-12T02:19:24.385Z,16.70
2022-09-12T02:19:40.141Z,16.70
2022-09-12T02:19:51.901Z,16.70
2022-09-12T02:20:14.639Z,16.70
2022-09-12T02:20:47.863Z,16.70
2022-09-12T02:21:00.349Z,16.70
2022-09-12T02:21:12.052Z,16.70
2022-09-12T02:21:24.117Z,16.70
2022-09-12T02:21:36.256Z,16.70
2022-09-12T02:21:52.763Z,16.70
2022-09-12T02:22:04.767Z,16.60
2022-09-12T02:22:17.571Z,16.60
2022-09-12T02:22:30.412Z,16.60
2022-09-12T02:22:42.111Z,16.70
2022-09-12T02:22:53.876Z,16.70
2022-09-12T02:23:10.016Z,16.70
2022-09-12T02:23:29.151Z,16.60
2022-09-12T02:23:44.858Z,16.70
2022-09-12T02:23:58.756Z,16.70
2022-09-12T02:24:10.517Z,16.70
2022-09-12T02:24:23.320Z,16.70
2022-09-12T02:24:39.600Z,16.70
2022-09-12T02:24:54.049Z,16.70
2022-09-12T02:25:06.323Z,16.70
2022-09-12T02:25:18.579Z,16.70
2022-09-12T02:25:30.305Z,16.70
2022-09-12T02:25:43.338Z,16.70
2022-09-12T02:25:57.636Z,16.70
2022-09-12T02:26:21.420Z,16.70
2022-09-12T02:26:35.580Z,16.70
2022-09-12T02:26:52.786Z,16.70
2022-09-12T02:27:20.464Z,16.70
2022-09-12T02:27:42.985Z,16.70
2022-09-12T02:28:03.964Z,16.80
2022-09-12T02:28:18.118Z,16.70
2022-09-12T02:28:34.951Z,16.70
2022-09-12T02:28:47.028Z,16.70
2022-09-12T02:28:58.896Z,16.70
2022-09-12T02:29:10.596Z,16.70
2022-09-12T02:29:22.429Z,16.70
2022-09-12T02:29:34.122Z,16.70
2022-09-12T02:29:45.904Z,16.70
2022-09-12T02:29:57.661Z,16.80
2022-09-12T02:30:09.810Z,16.80
2022-09-12T02:30:21.553Z,16.80
2022-09-12T02:30:37.545Z,16.80
2022-09-12T02:31:18.628Z,16.80
2022-09-12T02:31:33.764Z,16.80
2022-09-12T02:31:50.277Z,16.80
2022-09-12T02:32:05.861Z,16.80
2022-09-12T02:32:35.867Z,16.80
2022-09-12T02:33:15.273Z,16.80
2022-09-12T02:33:27.622Z,16.80
2022-09-12T02:33:46.955Z,16.80
2022-09-12T02:34:29.129Z,16.80
2022-09-12T02:34:53.412Z,16.80
2022-09-12T02:35:22.222Z,16.80
2022-09-12T02:35:39.315Z,16.80
2022-09-12T02:36:14.439Z,16.80
2022-09-12T02:36:47.670Z,16.80
2022-09-12T02:37:44.073Z,16.80
2022-09-12T02:38:11.393Z,16.80
2022-09-12T02:38:32.016Z,16.80
2022-09-12T02:38:45.840Z,16.80
2022-09-12T02:38:57.785Z,16.80
2022-09-12T02:39:09.829Z,16.80
2022-09-12T02:39:21.657Z,16.80
2022-09-12T02:39:33.660Z,16.80
2022-09-12T02:39:45.728Z,16.80
2022-09-12T02:39:58.192Z,16.80
2022-09-12T02:40:10.004Z,16.80
2022-09-12T02:40:22.917Z,16.90
2022-09-12T02:40:35.337Z,16.90
2022-09-12T02:40:47.045Z,16.80
2022-09-12T02:40:58.858Z,16.90
2022-09-12T02:41:11.246Z,16.80
2022-09-12T02:41:23.045Z,16.80
2022-09-12T02:41:34.846Z,16.80
2022-09-12T02:41:52.636Z,16.90
2022-09-12T02:42:04.419Z,16.80
2022-09-12T02:42:16.248Z,16.80
2022-09-12T02:42:27.999Z,16.80
2022-09-12T02:42:39.824Z,16.80
2022-09-12T02:42:51.624Z,16.80
2022-09-12T02:43:05.001Z,16.80
2022-09-12T02:43:16.792Z,16.80
2022-09-12T02:43:28.494Z,16.80
2022-09-12T02:43:40.949Z,16.80
2022-09-12T02:43:52.800Z,16.80
2022-09-12T02:44:04.940Z,16.80
2022-09-12T02:44:16.685Z,16.70
2022-09-12T02:44:29.260Z,16.80
2022-09-12T02:44:43.870Z,16.80
2022-09-12T02:44:55.674Z,16.80
2022-09-12T02:45:07.838Z,16.70
2022-09-12T02:45:19.604Z,16.70
2022-09-12T02:45:34.234Z,16.80
2022-09-12T02:45:46.070Z,16.80
2022-09-12T02:45:57.885Z,16.80
2022-09-12T02:46:15.835Z,16.80
2022-09-12T02:46:47.999Z,16.80
2022-09-12T02:47:20.180Z,16.80
2022-09-12T02:47:41.467Z,16.70
2022-09-12T02:47:59.372Z,16.70
2022-09-12T02:48:17.028Z,16.70
2022-09-12T02:48:31.321Z,16.70
2022-09-12T02:48:43.519Z,16.70
2022-09-12T02:48:55.781Z,16.70
2022-09-12T02:49:09.523Z,16.70
2022-09-12T02:49:21.379Z,16.70
2022-09-12T02:49:33.056Z,16.70
2022-09-12T02:49:44.894Z,16.70
2022-09-12T02:49:56.988Z,16.70
2022-09-12T02:50:08.981Z,16.70
2022-09-12T02:50:20.885Z,16.70
2022-09-12T02:50:32.640Z,16.70
2022-09-12T02:50:44.448Z,16.70
2022-09-12T02:50:56.251Z,16.70
2022-09-12T02:51:08.017Z,16.70
2022-09-12T02:51:23.519Z,16.70
2022-09-12T02:51:35.571Z,16.70
2022-09-12T02:51:47.279Z,16.70
2022-09-12T02:51:59.610Z,16.80
2022-09-12T02:52:14.545Z,16.70
2022-09-12T02:52:27.404Z,16.70
2022-09-12T02:52:39.112Z,16.80
2022-09-12T02:52:51.265Z,16.80
2022-09-12T02:53:05.018Z,16.70
2022-09-12T02:53:16.770Z,16.70
2022-09-12T02:53:28.658Z,16.80
2022-09-12T02:53:41.200Z,16.70
2022-09-12T02:53:53.016Z,16.70
2022-09-12T02:54:06.535Z,16.70
2022-09-12T02:54:18.377Z,16.70
2022-09-12T02:54:30.476Z,16.70
2022-09-12T02:54:42.226Z,16.70
2022-09-12T02:54:53.923Z,16.70
2022-09-12T02:55:06.006Z,16.70
2022-09-12T02:55:17.766Z,16.70
2022-09-12T02:55:30.524Z,16.70
2022-09-12T02:55:42.268Z,16.70
2022-09-12T02:55:53.967Z,16.70
2022-09-12T02:56:06.090Z,16.70
2022-09-12T02:56:21.723Z,16.70
2022-09-12T02:56:33.452Z,16.70
2022-09-12T02:56:45.599Z,16.70
2022-09-12T02:56:57.317Z,16.70
2022-09-12T02:57:22.567Z,16.70
2022-09-12T02:57:34.880Z,16.60
2022-09-12T02:57:46.602Z,16.60
2022-09-12T02:57:58.997Z,16.60
2022-09-12T02:58:13.423Z,16.60
2022-09-12T02:58:27.170Z,16.60
2022-09-12T02:58:38.859Z,16.60
2022-09-12T02:58:50.607Z,16.60
2022-09-12T02:59:05.676Z,16.60
2022-09-12T02:59:19.259Z,16.60
2022-09-12T02:59:30.966Z,16.60
2022-09-12T02:59:42.732Z,16.60
2022-09-12T02:59:56.537Z,16.60
2022-09-12T03:00:08.733Z,16.60
2022-09-12T03:00:20.545Z,16.60
2022-09-12T03:00:46.629Z,16.60
2022-09-12T03:01:27.829Z,16.60
2022-09-12T03:01:58.129Z,16.70
2022-09-12T03:02:28.651Z,16.60
2022-09-12T03:02:58.192Z,16.70
2022-09-12T03:03:16.360Z,16.60
2022-09-12T03:03:51.685Z,16.60
2022-09-12T03:04:25.696Z,16.60
2022-09-12T03:05:05.772Z,16.60
2022-09-12T03:05:24.919Z,16.60
2022-09-12T03:05:59.121Z,16.60
2022-09-12T03:06:18.360Z,16.60
2022-09-12T03:06:48.800Z,16.50
2022-09-12T03:07:03.445Z,16.60
2022-09-12T03:07:27.149Z,16.60
2022-09-12T03:08:13.981Z,16.50
2022-09-12T03:08:56.222Z,16.50
2022-09-12T03:09:29.093Z,16.50
2022-09-12T03:09:58.552Z,16.50
2022-09-12T03:10:17.061Z,16.50
2022-09-12T03:10:53.232Z,16.50
2022-09-12T03:11:38.517Z,16.40
2022-09-12T03:11:59.079Z,16.50
2022-09-12T03:12:41.547Z,16.50
2022-09-12T03:13:02.970Z,16.50
2022-09-12T03:13:20.690Z,16.50
2022-09-12T03:13:46.184Z,16.40
2022-09-12T03:14:06.799Z,16.50
2022-09-12T03:14:24.510Z,16.40
2022-09-12T03:14:41.965Z,16.40
2022-09-12T03:15:02.158Z,16.40
2022-09-12T03:15:33.858Z,16.40
2022-09-12T03:16:05.217Z,16.40
2022-09-12T03:16:44.483Z,16.40
2022-09-12T03:17:17.085Z,16.40
2022-09-12T03:17:59.470Z,16.40
2022-09-12T03:18:40.493Z,16.40
2022-09-12T03:18:58.577Z,16.40
2022-09-12T03:19:16.774Z,16.40
2022-09-12T03:19:49.863Z,16.40
2022-09-12T03:20:22.546Z,16.30
2022-09-12T03:20:46.042Z,16.40
2022-09-12T03:21:02.412Z,16.40
2022-09-12T03:21:59.576Z,16.40
2022-09-12T03:22:21.897Z,16.40
2022-09-12T03:23:22.281Z,16.40
2022-09-12T03:23:40.770Z,16.30
2022-09-12T03:24:04.688Z,16.40
2022-09-12T03:24:18.730Z,16.30
2022-09-12T03:24:33.287Z,16.40
2022-09-12T03:25:03.020Z,16.30
2022-09-12T03:25:23.544Z,16.30
2022-09-12T03:25:36.907Z,16.30
2022-09-12T03:25:51.725Z,16.30
2022-09-12T03:26:09.609Z,16.30
2022-09-12T03:26:28.775Z,16.30
2022-09-12T03:26:48.068Z,16.30
2022-09-12T03:27:22.270Z,16.30
2022-09-12T03:27:36.642Z,16.30
2022-09-12T03:27:56.988Z,16.30
2022-09-12T03:28:13.978Z,16.30
2022-09-12T03:28:25.718Z,16.20
2022-09-12T03:28:37.459Z,16.20
2022-09-12T03:28:49.186Z,16.20
2022-09-12T03:29:01.068Z,16.20
2022-09-12T03:29:12.914Z,16.20
2022-09-12T03:29:24.715Z,16.20
2022-09-12T03:29:37.151Z,16.20
2022-09-12T03:29:51.588Z,16.20
2022-09-12T03:30:05.347Z,16.20
2022-09-12T03:30:17.869Z,16.20
2022-09-12T03:30:29.661Z,16.20
2022-09-12T03:30:44.158Z,16.20
2022-09-12T03:30:56.530Z,16.20
2022-09-12T03:31:18.337Z,16.20
2022-09-12T03:31:30.040Z,16.20
2022-09-12T03:31:55.235Z,16.20
2022-09-12T03:32:07.514Z,16.20
2022-09-12T03:32:19.206Z,16.20
2022-09-12T03:32:47.762Z,16.10
2022-09-12T03:32:59.421Z,16.10
2022-09-12T03:33:20.183Z,16.10
2022-09-12T03:33:31.965Z,16.10
2022-09-12T03:33:44.258Z,16.10
2022-09-12T03:34:00.454Z,16.10
2022-09-12T03:34:13.195Z,16.10
2022-09-12T03:34:26.231Z,16.10
2022-09-12T03:34:37.966Z,16.10
2022-09-12T03:34:49.642Z,16.10
2022-09-12T03:35:01.289Z,16.00
2022-09-12T03:35:17.239Z,16.10
2022-09-12T03:35:31.547Z,16.00
2022-09-12T03:35:43.790Z,16.00
2022-09-12T03:35:55.615Z,16.00
2022-09-12T03:36:13.396Z,16.00
2022-09-12T03:36:26.595Z,16.00
2022-09-12T03:36:39.933Z,16.00
2022-09-12T03:36:52.016Z,16.00
2022-09-12T03:37:03.783Z,16.00
2022-09-12T03:37:15.553Z,16.00